createdAt,value
2023-02-22T00:01:45.464Z,48.35
2023-02-22T00:04:30.915Z,45.60
2023-02-22T00:07:17.677Z,48.97
2023-02-22T00:10:03.192Z,49.50
2023-02-22T00:12:49.489Z,48.40
2023-02-22T00:15:35.758Z,48.97
2023-02-22T00:18:21.229Z,47.80
2023-02-22T00:21:10.702Z,44.92
2023-02-22T00:23:56.785Z,45.65
2023-02-22T00:26:42.662Z,43.58
2023-02-22T00:29:29.572Z,46.55
2023-02-22T00:32:15.819Z,48.30
2023-02-22T00:35:01.875Z,48.58
2023-02-22T00:37:49.204Z,48.65
2023-02-22T00:40:35.657Z,47.53
2023-02-22T00:43:21.661Z,50.50
2023-02-22T00:46:07.559Z,53.10
2023-02-22T00:48:53.376Z,48.60
2023-02-22T00:51:39.320Z,48.22
2023-02-22T00:54:25.684Z,48.30
2023-02-22T00:57:12.967Z,45.67
2023-02-22T00:59:58.683Z,49.80
2023-02-22T01:02:44.113Z,47.40
2023-02-22T01:05:33.344Z,44.83
2023-02-22T01:08:20.138Z,43.40
2023-02-22T01:11:07.016Z,44.45
2023-02-22T01:13:54.459Z,42.22
2023-02-22T01:16:40.595Z,42.63
2023-02-22T01:19:27.127Z,42.00
2023-02-22T01:22:14.212Z,30.83
2023-02-22T01:24:59.900Z,33.90
2023-02-22T01:27:45.285Z,37.53
2023-02-22T01:30:33.365Z,41.67
2023-02-22T01:33:19.276Z,40.42
2023-02-22T01:36:11.451Z,43.38
2023-02-22T01:38:58.116Z,42.03
2023-02-22T01:41:45.431Z,35.72
2023-02-22T01:44:36.696Z,36.15
2023-02-22T01:47:22.938Z,32.88
2023-02-22T01:50:10.807Z,30.42
2023-02-22T01:52:56.935Z,29.67
2023-02-22T01:55:44.932Z,31.48
2023-02-22T01:58:33.655Z,27.73
2023-02-22T02:01:20.691Z,27.42
2023-02-22T02:04:11.129Z,28.60
2023-02-22T02:07:00.741Z,32.75
2023-02-22T02:10:01.684Z,31.92
2023-02-22T02:12:50.378Z,28.63
2023-02-22T02:15:36.126Z,27.75
2023-02-22T02:18:22.154Z,26.73
2023-02-22T02:21:13.907Z,27.75
2023-02-22T02:24:22.591Z,28.67
2023-02-22T02:27:14.440Z,28.08
2023-02-22T02:30:04.535Z,26.73
2023-02-22T02:32:56.106Z,25.52
2023-02-22T02:35:48.112Z,23.83
2023-02-22T02:38:44.591Z,22.13
2023-02-22T02:41:39.970Z,21.00
2023-02-22T02:44:34.538Z,20.25
2023-02-22T02:47:28.962Z,17.25
2023-02-22T02:50:19.108Z,13.73
2023-02-22T02:53:06.171Z,12.70
2023-02-22T02:55:51.827Z,11.43
2023-02-22T02:58:52.857Z,11.55
2023-02-22T03:01:56.527Z,10.80
2023-02-22T03:05:20.618Z,10.88
2023-02-22T03:08:50.488Z,8.80
2023-02-22T03:12:02.263Z,8.45
2023-02-22T03:15:00.405Z,9.38
2023-02-22T03:18:10.752Z,8.68
2023-02-22T03:21:34.795Z,10.75
2023-02-22T03:24:31.517Z,9.55
2023-02-22T03:27:53.413Z,9.55
2023-02-22T03:30:51.141Z,8.75
2023-02-22T03:33:55.179Z,8.05
2023-02-22T03:36:56.018Z,7.15
2023-02-22T03:39:44.031Z,7.82
2023-02-22T03:45:19.392Z,7.95
2023-02-22T03:48:15.201Z,9.25
2023-02-22T03:51:04.510Z,9.40
2023-02-22T03:53:52.214Z,9.02
2023-02-22T03:56:47.505Z,13.60
2023-02-22T03:59:33.803Z,16.20
2023-02-22T04:02:19.497Z,24.38
2023-02-22T04:05:07.391Z,18.85
2023-02-22T04:07:53.717Z,22.80
2023-02-22T04:10:39.598Z,26.48
2023-02-22T04:13:27.692Z,25.08
2023-02-22T04:16:14.020Z,31.48
2023-02-22T04:18:59.791Z,29.75
2023-02-22T04:21:45.828Z,29.05
2023-02-22T04:24:38.593Z,30.80
2023-02-22T04:27:24.428Z,28.63
2023-02-22T04:30:12.895Z,28.00
2023-02-22T04:33:00.147Z,26.35
2023-02-22T04:35:45.532Z,22.92
2023-02-22T04:38:32.312Z,23.70
2023-02-22T04:41:19.754Z,26.73
2023-02-22T04:44:05.965Z,21.35
2023-02-22T04:46:52.717Z,27.75
2023-02-22T04:49:39.150Z,26.25
2023-02-22T04:52:25.358Z,27.45
2023-02-22T04:55:12.241Z,24.42
2023-02-22T04:57:58.133Z,29.10
2023-02-22T05:00:43.855Z,25.65
2023-02-22T05:03:29.607Z,26.55
2023-02-22T05:06:18.094Z,25.42
2023-02-22T05:09:07.094Z,29.23
2023-02-22T05:11:52.589Z,29.75
2023-02-22T05:14:39.127Z,40.00
2023-02-22T05:17:24.497Z,42.95
2023-02-22T05:20:24.738Z,47.95
2023-02-22T05:23:10.295Z,35.47
2023-02-22T05:25:55.931Z,38.03
2023-02-22T05:28:41.716Z,43.08
2023-02-22T05:31:27.089Z,48.47
2023-02-22T05:34:14.425Z,59.88
2023-02-22T05:36:59.893Z,57.95
2023-02-22T05:39:46.557Z,65.45
2023-02-22T05:42:32.166Z,65.28
2023-02-22T05:45:21.818Z,58.30
2023-02-22T05:48:07.993Z,66.30
2023-02-22T05:50:53.863Z,63.28
2023-02-22T05:53:39.715Z,77.15
2023-02-22T05:56:28.457Z,73.35
2023-02-22T05:59:15.013Z,82.30
2023-02-22T06:02:00.572Z,70.97
2023-02-22T06:04:46.801Z,66.45
2023-02-22T06:07:32.372Z,64.15
2023-02-22T06:10:18.498Z,61.45
2023-02-22T06:13:05.764Z,63.45
2023-02-22T06:15:51.490Z,54.97
2023-02-22T06:18:36.916Z,45.72
2023-02-22T06:21:22.624Z,53.10
2023-02-22T06:24:08.211Z,42.58
2023-02-22T06:27:00.391Z,46.15
2023-02-22T06:29:47.029Z,50.53
2023-02-22T06:32:33.968Z,42.70
2023-02-22T06:35:19.566Z,45.20
2023-02-22T06:38:04.767Z,44.08
2023-02-22T06:40:51.524Z,65.32
2023-02-22T06:43:37.054Z,62.53
2023-02-22T06:46:22.441Z,69.75
2023-02-22T06:49:07.871Z,63.22
2023-02-22T06:51:54.496Z,58.05
2023-02-22T06:54:40.100Z,57.45
2023-02-22T06:57:25.631Z,62.53
2023-02-22T07:00:11.702Z,51.72
2023-02-22T07:02:58.270Z,58.17
2023-02-22T07:05:44.464Z,57.42
2023-02-22T07:08:30.502Z,54.50
2023-02-22T07:11:18.605Z,53.90
2023-02-22T07:14:04.364Z,43.17
2023-02-22T07:16:51.033Z,52.50
2023-02-22T07:19:36.655Z,42.13
2023-02-22T07:22:22.608Z,44.85
2023-02-22T07:25:12.047Z,40.15
2023-02-22T07:27:57.832Z,46.83
2023-02-22T07:30:43.863Z,65.28
2023-02-22T07:33:29.882Z,56.33
2023-02-22T07:36:18.086Z,52.17
2023-02-22T07:39:03.645Z,44.20
2023-02-22T07:41:49.916Z,38.72
2023-02-22T07:44:43.473Z,36.67
2023-02-22T07:47:30.264Z,31.33
2023-02-22T07:50:17.228Z,31.15
2023-02-22T07:53:05.136Z,28.60
2023-02-22T07:55:51.864Z,24.45
2023-02-22T07:58:37.777Z,23.80
2023-02-22T08:01:24.959Z,26.00
2023-02-22T08:04:10.936Z,23.60
2023-02-22T08:07:00.638Z,25.13
2023-02-22T08:09:46.378Z,26.27
2023-02-22T08:12:35.136Z,21.88
2023-02-22T08:15:29.740Z,31.58
2023-02-22T08:18:18.488Z,38.33
2023-02-22T08:21:04.491Z,21.23
2023-02-22T08:23:54.572Z,24.40
2023-02-22T08:26:45.673Z,21.05
2023-02-22T08:29:33.809Z,19.70
2023-02-22T08:35:06.268Z,32.58
2023-02-22T08:37:57.737Z,17.67
2023-02-22T08:40:43.581Z,18.00
2023-02-22T08:43:28.961Z,32.58
2023-02-22T08:46:14.343Z,19.88
2023-02-22T08:48:59.835Z,22.08
2023-02-22T08:51:45.198Z,20.27
2023-02-22T08:54:31.806Z,22.52
2023-02-22T08:57:21.632Z,23.38
2023-02-22T09:00:07.824Z,23.02
2023-02-22T09:02:53.148Z,22.52
2023-02-22T09:05:39.195Z,20.30
2023-02-22T09:08:24.902Z,21.17
2023-02-22T09:11:10.746Z,19.65
2023-02-22T09:13:56.184Z,16.45
2023-02-22T09:16:42.628Z,18.60
2023-02-22T09:19:28.445Z,17.00
2023-02-22T09:22:13.863Z,19.48
2023-02-22T09:25:02.574Z,10.23
2023-02-22T09:27:53.578Z,19.00
2023-02-22T09:30:40.356Z,15.27
2023-02-22T09:33:26.137Z,18.83
2023-02-22T09:36:11.642Z,6.95
2023-02-22T09:38:59.183Z,9.50
2023-02-22T09:41:58.808Z,17.88
2023-02-22T09:44:48.649Z,18.77
2023-02-22T09:47:47.951Z,17.73
2023-02-22T09:50:42.409Z,15.15
2023-02-22T09:56:22.930Z,15.82
2023-02-22T09:59:12.661Z,16.88
2023-02-22T10:02:29.536Z,14.43
2023-02-22T10:05:23.306Z,15.57
2023-02-22T10:08:15.575Z,16.05
2023-02-22T10:11:28.740Z,16.73
2023-02-22T10:14:33.731Z,15.07
2023-02-22T10:17:20.242Z,14.35
2023-02-22T10:20:29.118Z,14.30
2023-02-22T10:23:37.024Z,13.82
2023-02-22T10:26:47.543Z,12.48
2023-02-22T10:29:40.796Z,13.02
2023-02-22T10:32:32.194Z,11.88
2023-02-22T10:35:28.616Z,12.73
2023-02-22T10:38:20.570Z,12.35
2023-02-22T10:41:11.311Z,12.77
2023-02-22T10:43:57.685Z,12.68
2023-02-22T10:46:45.789Z,11.77
2023-02-22T10:49:46.535Z,11.52
2023-02-22T10:52:34.063Z,11.25
2023-02-22T10:55:22.247Z,12.95
2023-02-22T10:58:08.644Z,11.50
2023-02-22T11:00:56.973Z,10.93
2023-02-22T11:03:45.780Z,10.13
2023-02-22T11:06:33.547Z,10.65
2023-02-22T11:12:18.064Z,9.63
2023-02-22T11:15:19.244Z,9.40
2023-02-22T11:18:04.776Z,5.18
2023-02-22T11:21:00.518Z,5.97
2023-02-22T11:23:46.275Z,8.13
2023-02-22T11:26:38.731Z,3.70
2023-02-22T11:29:27.722Z,9.13
2023-02-22T11:32:15.623Z,9.35
2023-02-22T11:35:30.554Z,9.10
2023-02-22T11:38:18.193Z,9.15
2023-02-22T11:41:16.392Z,9.35
2023-02-22T11:44:26.760Z,8.63
2023-02-22T11:47:12.727Z,8.40
2023-02-22T11:49:58.377Z,9.00
2023-02-22T11:52:46.397Z,7.90
2023-02-22T11:55:43.072Z,7.05
2023-02-22T11:58:46.746Z,7.43
2023-02-22T12:01:57.183Z,5.07
2023-02-22T12:05:14.494Z,3.97
2023-02-22T12:08:25.885Z,4.20
2023-02-22T12:11:24.328Z,6.15
2023-02-22T12:14:31.812Z,6.35
2023-02-22T12:17:35.857Z,6.45
2023-02-22T12:20:51.151Z,6.63
2023-02-22T12:23:46.180Z,6.45
2023-02-22T12:26:37.887Z,6.78
2023-02-22T12:29:28.755Z,6.57
2023-02-22T12:32:41.784Z,6.25
2023-02-22T12:35:39.586Z,7.32
2023-02-22T12:38:40.215Z,6.35
2023-02-22T12:41:30.676Z,6.40
2023-02-22T12:44:19.253Z,6.35
2023-02-22T12:47:06.368Z,6.60
2023-02-22T12:49:57.972Z,6.55
2023-02-22T12:52:51.071Z,5.40
2023-02-22T12:55:46.246Z,5.78
2023-02-22T12:59:14.637Z,5.68
2023-02-22T13:02:12.626Z,5.35
2023-02-22T13:04:58.472Z,6.35
2023-02-22T13:07:56.412Z,6.15
2023-02-22T13:11:07.781Z,5.07
2023-02-22T13:14:06.572Z,6.03
2023-02-22T13:17:21.186Z,5.55
2023-02-22T13:20:18.690Z,4.90
2023-02-22T13:23:35.746Z,4.95
2023-02-22T13:26:28.316Z,6.40
2023-02-22T13:29:20.910Z,5.32
2023-02-22T13:32:18.851Z,8.77
2023-02-22T13:35:21.560Z,6.00
2023-02-22T13:38:38.590Z,6.13
2023-02-22T13:41:24.364Z,6.93
2023-02-22T13:44:28.137Z,6.80
2023-02-22T13:48:05.712Z,7.38
2023-02-22T13:51:06.673Z,5.90
2023-02-22T13:54:18.340Z,6.30
2023-02-22T13:57:05.021Z,6.45
2023-02-22T14:00:16.384Z,6.75
2023-02-22T14:03:10.001Z,7.97
2023-02-22T14:06:01.074Z,8.00
2023-02-22T14:08:47.392Z,8.68
2023-02-22T14:11:33.017Z,5.75
2023-02-22T14:14:19.239Z,6.55
2023-02-22T14:17:23.330Z,6.45
2023-02-22T14:20:15.738Z,6.03
2023-02-22T14:23:28.890Z,7.53
2023-02-22T14:26:29.097Z,7.68
2023-02-22T14:29:18.591Z,6.45
2023-02-22T14:32:07.477Z,6.07
2023-02-22T14:35:09.591Z,7.18
2023-02-22T14:38:01.740Z,7.20
2023-02-22T14:40:48.942Z,6.47
2023-02-22T14:43:36.560Z,6.82
2023-02-22T14:46:26.953Z,6.28
2023-02-22T14:49:19.129Z,6.90
2023-02-22T14:52:15.601Z,6.63
2023-02-22T14:55:27.599Z,6.57
2023-02-22T14:58:18.905Z,7.03
2023-02-22T15:02:09.593Z,5.72
2023-02-22T15:04:51.720Z,5.72
2023-02-22T15:07:37.496Z,6.15
2023-02-22T15:10:32.315Z,5.85
2023-02-22T15:13:24.581Z,6.88
2023-02-22T15:16:15.732Z,6.18
2023-02-22T15:19:10.239Z,5.63
2023-02-22T15:21:59.614Z,5.85
2023-02-22T15:24:59.074Z,6.78
2023-02-22T15:27:47.960Z,8.38
2023-02-22T15:30:36.427Z,7.20
2023-02-22T15:33:30.143Z,8.65
2023-02-22T15:36:24.788Z,14.93
2023-02-22T15:39:27.873Z,14.70
2023-02-22T15:42:21.060Z,7.18
2023-02-22T15:45:07.267Z,8.48
2023-02-22T15:47:59.060Z,7.32
2023-02-22T15:51:07.213Z,6.75
2023-02-22T15:53:53.283Z,5.13
2023-02-22T15:56:39.012Z,5.43
2023-02-22T15:59:30.551Z,5.65
2023-02-22T16:02:30.486Z,6.53
2023-02-22T16:05:18.658Z,19.83
2023-02-22T16:08:14.099Z,15.65
2023-02-22T16:11:13.086Z,16.30
2023-02-22T16:14:08.606Z,12.15
2023-02-22T16:17:24.901Z,19.55
2023-02-22T16:23:45.347Z,30.58
2023-02-22T16:26:33.348Z,24.38
2023-02-22T16:29:35.747Z,7.72
2023-02-22T16:32:21.512Z,11.63
2023-02-22T16:35:18.200Z,14.68
2023-02-22T16:38:06.095Z,7.90
2023-02-22T16:40:55.307Z,5.43
2023-02-22T16:43:46.300Z,5.05
2023-02-22T16:46:31.945Z,7.80
2023-02-22T16:49:17.347Z,6.22
2023-02-22T16:52:06.867Z,8.48
2023-02-22T16:54:52.514Z,9.23
2023-02-22T16:57:40.108Z,6.63
2023-02-22T17:00:31.684Z,5.63
2023-02-22T17:03:18.806Z,5.97
2023-02-22T17:06:05.179Z,6.43
2023-02-22T17:08:52.262Z,6.38
2023-02-22T17:11:38.886Z,5.50
2023-02-22T17:14:34.088Z,11.75
2023-02-22T17:17:19.918Z,11.95
2023-02-22T17:20:11.464Z,6.25
2023-02-22T17:22:59.154Z,8.45
2023-02-22T17:25:50.535Z,5.88
2023-02-22T17:28:36.130Z,6.85
2023-02-22T17:31:24.645Z,6.20
2023-02-22T17:34:10.561Z,5.95
2023-02-22T17:36:56.669Z,7.25
2023-02-22T17:39:41.956Z,7.75
2023-02-22T17:42:27.419Z,6.88
2023-02-22T17:45:14.748Z,17.55
2023-02-22T17:48:00.984Z,19.50
2023-02-22T17:50:47.424Z,12.98
2023-02-22T17:53:33.950Z,21.90
2023-02-22T17:56:19.828Z,22.95
2023-02-22T17:59:09.210Z,34.10
2023-02-22T18:01:54.800Z,30.83
2023-02-22T18:04:40.773Z,10.73
2023-02-22T18:07:26.474Z,10.60
2023-02-22T18:10:13.516Z,16.08
2023-02-22T18:13:02.122Z,6.07
2023-02-22T18:15:48.605Z,10.88
2023-02-22T18:18:35.107Z,12.50
2023-02-22T18:21:21.634Z,9.68
2023-02-22T18:24:07.796Z,7.80
2023-02-22T18:26:53.680Z,9.73
2023-02-22T18:29:40.713Z,14.80
2023-02-22T18:32:30.955Z,16.25
2023-02-22T18:35:18.090Z,11.50
2023-02-22T18:38:05.177Z,13.98
2023-02-22T18:41:05.466Z,12.07
2023-02-22T18:44:03.386Z,15.77
2023-02-22T18:46:49.805Z,14.40
2023-02-22T18:49:37.097Z,17.88
2023-02-22T18:52:23.410Z,16.70
2023-02-22T18:55:12.080Z,15.55
2023-02-22T18:58:04.775Z,16.30
2023-02-22T19:00:50.249Z,14.75
2023-02-22T19:03:38.888Z,14.35
2023-02-22T19:06:24.751Z,15.77
2023-02-22T19:09:10.661Z,18.55
2023-02-22T19:11:56.974Z,16.42
2023-02-22T19:14:43.390Z,17.33
2023-02-22T19:17:31.199Z,22.20
2023-02-22T19:20:17.272Z,18.45
2023-02-22T19:23:03.115Z,29.77
2023-02-22T19:25:50.328Z,37.53
2023-02-22T19:28:35.755Z,23.88
2023-02-22T19:31:29.868Z,24.20
2023-02-22T19:34:19.825Z,24.85
2023-02-22T19:37:06.130Z,16.20
2023-02-22T19:39:51.785Z,19.15
2023-02-22T19:42:38.174Z,20.63
2023-02-22T19:45:46.480Z,23.42
2023-02-22T19:48:53.502Z,17.13
2023-02-22T19:51:40.542Z,15.18
2023-02-22T19:54:26.720Z,17.75
2023-02-22T19:57:13.446Z,15.82
2023-02-22T19:59:59.374Z,16.92
2023-02-22T20:02:47.415Z,22.75
2023-02-22T20:05:40.581Z,22.13
2023-02-22T20:08:26.952Z,21.75
2023-02-22T20:11:13.774Z,22.50
2023-02-22T20:14:01.147Z,17.17
2023-02-22T20:16:47.138Z,20.25
2023-02-22T20:19:32.988Z,22.10
2023-02-22T20:22:19.757Z,16.98
2023-02-22T20:25:06.845Z,22.15
2023-02-22T20:27:56.141Z,17.08
2023-02-22T20:30:41.806Z,18.33
2023-02-22T20:33:27.802Z,17.15
2023-02-22T20:36:16.764Z,16.88
2023-02-22T20:39:07.531Z,26.13
2023-02-22T20:41:54.645Z,24.75
2023-02-22T20:44:40.620Z,30.80
2023-02-22T20:47:26.397Z,27.85
2023-02-22T20:50:13.178Z,21.55
2023-02-22T20:52:59.025Z,19.60
2023-02-22T20:55:51.837Z,22.55
2023-02-22T20:58:37.405Z,21.92
2023-02-22T21:01:23.361Z,36.08
2023-02-22T21:04:10.704Z,65.53
2023-02-22T21:06:56.800Z,46.47
2023-02-22T21:09:42.387Z,50.85
2023-02-22T21:12:29.180Z,46.28
2023-02-22T21:15:18.446Z,39.58
2023-02-22T21:18:10.747Z,38.33
2023-02-22T21:21:04.665Z,38.08
2023-02-22T21:23:52.677Z,34.40
2023-02-22T21:26:38.894Z,20.95
2023-02-22T21:29:24.767Z,27.60
2023-02-22T21:32:12.952Z,23.30
2023-02-22T21:34:58.377Z,31.40
2023-02-22T21:37:46.224Z,30.95
2023-02-22T21:43:27.464Z,20.85
2023-02-22T21:46:15.219Z,16.42
2023-02-22T21:51:47.595Z,13.48
2023-02-22T21:54:33.156Z,14.07
2023-02-22T21:57:20.532Z,15.32
2023-02-22T22:00:29.129Z,14.45
2023-02-22T22:03:20.461Z,15.05
2023-02-22T22:06:13.573Z,16.90
2023-02-22T22:09:04.821Z,16.90
2023-02-22T22:11:58.475Z,23.20
2023-02-22T22:14:44.868Z,19.02
2023-02-22T22:17:32.199Z,17.15
2023-02-22T22:20:18.338Z,17.23
2023-02-22T22:23:04.582Z,18.75
2023-02-22T22:25:51.361Z,20.92
2023-02-22T22:28:39.387Z,22.17
2023-02-22T22:31:26.361Z,23.25
2023-02-22T22:34:12.971Z,25.40
2023-02-22T22:36:58.640Z,24.83
2023-02-22T22:39:44.289Z,25.50
2023-02-22T22:42:30.467Z,27.75
2023-02-22T22:45:18.285Z,30.45
2023-02-22T22:48:04.755Z,29.35
2023-02-22T22:51:03.458Z,34.33
2023-02-22T22:53:50.095Z,30.25
2023-02-22T22:56:38.077Z,29.70
2023-02-22T23:02:11.469Z,35.53
2023-02-22T23:04:57.441Z,33.22
2023-02-22T23:07:43.397Z,34.83
2023-02-22T23:10:29.491Z,36.97
2023-02-22T23:13:15.800Z,37.05
2023-02-22T23:16:12.043Z,35.80
2023-02-22T23:18:58.726Z,37.22
2023-02-22T23:21:44.289Z,35.33
2023-02-22T23:24:32.135Z,37.65
2023-02-22T23:27:19.228Z,34.10
2023-02-22T23:30:05.805Z,33.60
2023-02-22T23:32:53.755Z,33.60
2023-02-22T23:35:39.345Z,33.63
2023-02-22T23:38:24.707Z,37.45
2023-02-22T23:41:13.275Z,33.08
2023-02-22T23:44:00.064Z,36.42
2023-02-22T23:46:54.676Z,32.65
2023-02-22T23:49:43.475Z,33.60
2023-02-22T23:55:20.476Z,25.77
2023-02-22T23:58:06.230Z,38.97
